Time;durP1;ratioP1;P1;durP2;ratioP2;P2;SDS_P1;SDS_P2;PMS_P1;PMS_P2;Temp;Humidity;BMP_temperature;BMP_pressure;BME280_temperature;BME280_humidity;BME280_pressure;Samples;Min_cycle;Max_cycle;Signal;HPM_P1;HPM_P2
2024/01/11 00:02:18;;;;;;;44.83;18.20;;;-7.00;99.90;;;;;;4958605;29;20463;-63
2024/01/11 00:04:43;;;;;;;46.63;19.08;;;-7.00;99.90;;;;;;4958089;29;20043;-64
2024/01/11 00:07:10;;;;;;;51.97;20.25;;;-7.10;99.90;;;;;;4958610;29;20019;-63
2024/01/11 00:09:42;;;;;;;45.30;18.27;;;-5.90;99.90;;;;;;4958398;29;20039;-64
2024/01/11 00:12:09;;;;;;;43.63;16.52;;;-7.10;99.90;;;;;;4958259;29;20031;-63
2024/01/11 00:14:35;;;;;;;43.17;18.40;;;-4.90;99.90;;;;;;4958219;29;20031;-64
2024/01/11 00:17:01;;;;;;;43.58;18.00;;;-5.10;99.90;;;;;;4958740;28;20031;-64
2024/01/11 00:19:27;;;;;;;46.10;18.83;;;-5.50;99.90;;;;;;4958210;29;20085;-63
2024/01/11 00:21:53;;;;;;;49.03;19.55;;;-7.20;99.90;;;;;;4940917;29;20035;-63
2024/01/11 00:24:19;;;;;;;43.13;18.80;;;-7.20;99.90;;;;;;4941072;29;20467;-63
2024/01/11 00:26:45;;;;;;;43.63;17.30;;;-5.10;99.90;;;;;;4940869;29;20031;-63
2024/01/11 00:29:11;;;;;;;48.50;19.05;;;-7.20;99.90;;;;;;4940819;29;20027;-63
2024/01/11 00:31:38;;;;;;;42.92;18.08;;;-5.20;99.90;;;;;;4957885;28;20019;-63
2024/01/11 00:34:03;;;;;;;42.05;17.98;;;-5.90;99.90;;;;;;4940757;29;20034;-63
2024/01/11 00:36:29;;;;;;;44.92;19.45;;;-7.30;99.90;;;;;;4957624;28;20023;-63
2024/01/11 00:38:55;;;;;;;47.15;18.58;;;-7.30;99.90;;;;;;4957568;29;20024;-64
2024/01/11 00:41:20;;;;;;;48.35;19.23;;;-7.30;99.90;;;;;;4957897;29;20102;-64
2024/01/11 00:43:46;;;;;;;48.45;19.13;;;-6.10;99.90;;;;;;4956718;28;20027;-63
2024/01/11 00:46:12;;;;;;;46.53;19.30;;;-7.30;99.90;;;;;;4940795;29;20078;-63
2024/01/11 00:48:37;;;;;;;52.42;19.55;;;-7.30;99.90;;;;;;4959263;29;20407;-64
2024/01/11 00:51:06;;;;;;;50.47;20.25;;;-7.30;99.90;;;;;;4959164;29;20030;-64
2024/01/11 00:53:33;;;;;;;44.45;18.50;;;-7.30;99.90;;;;;;4958534;29;20023;-64
2024/01/11 00:55:59;;;;;;;49.70;18.95;;;-7.30;99.90;;;;;;4957679;29;20027;-63
2024/01/11 00:58:25;;;;;;;44.92;18.98;;;-5.30;99.90;;;;;;4957542;29;20027;-63
2024/01/11 01:00:52;;;;;;;46.33;19.08;;;-7.30;99.90;;;;;;4957554;29;20019;-63
2024/01/11 01:03:18;;;;;;;47.28;18.88;;;-4.80;99.90;;;;;;4957383;28;20054;-64
2024/01/11 01:05:44;;;;;;;46.05;19.27;;;-5.10;99.90;;;;;;4940183;29;20359;-63
2024/01/11 01:08:10;;;;;;;41.55;18.40;;;-6.20;99.90;;;;;;4959280;29;20027;-64
2024/01/11 01:10:36;;;;;;;46.88;19.08;;;-6.90;99.90;;;;;;4940905;29;20415;-63
2024/01/11 01:13:02;;;;;;;52.00;18.92;;;-7.40;99.90;;;;;;4957190;29;20053;-63
2024/01/11 01:15:28;;;;;;;46.53;18.38;;;-7.50;99.90;;;;;;4957154;28;20058;-63
2024/01/11 01:17:54;;;;;;;42.13;17.73;;;-7.50;99.90;;;;;;4939924;29;20114;-63
2024/01/11 01:20:19;;;;;;;45.05;18.00;;;-7.50;99.90;;;;;;4957060;29;20031;-63
2024/01/11 01:22:45;;;;;;;47.88;17.40;;;-7.60;99.90;;;;;;4939804;29;20027;-63
2024/01/11 01:25:10;;;;;;;37.22;17.95;;;-7.60;99.90;;;;;;4939817;29;20027;-63
2024/01/11 01:27:36;;;;;;;48.60;17.75;;;-7.40;99.90;;;;;;4941069;29;20023;-63
2024/01/11 01:30:02;;;;;;;44.97;17.52;;;-7.60;99.90;;;;;;4957517;28;20077;-63
2024/01/11 01:32:28;;;;;;;44.38;16.75;;;-7.60;99.90;;;;;;4956708;29;20451;-63
2024/01/11 01:34:53;;;;;;;42.38;17.15;;;-7.60;99.90;;;;;;4939538;29;20034;-63
2024/01/11 01:37:19;;;;;;;40.17;17.42;;;-5.40;99.90;;;;;;4940014;29;20020;-64
2024/01/11 01:39:45;;;;;;;44.13;17.02;;;-7.70;99.90;;;;;;4957142;29;20023;-63
2024/01/11 01:42:10;;;;;;;46.28;17.35;;;-7.70;99.90;;;;;;4957324;29;20419;-63
2024/01/11 01:44:36;;;;;;;41.30;17.35;;;-7.80;99.90;;;;;;4940280;29;20414;-63
2024/01/11 01:47:04;;;;;;;41.58;16.80;;;-6.00;99.90;;;;;;4956591;29;20490;-63
2024/01/11 01:49:29;;;;;;;48.33;18.30;;;-7.80;99.90;;;;;;4956636;29;20023;-63
2024/01/11 01:51:55;;;;;;;46.25;18.92;;;-7.90;99.90;;;;;;4956402;29;20469;-63
2024/01/11 01:54:22;;;;;;;47.35;17.63;;;-6.90;99.90;;;;;;4939124;28;20035;-63
2024/01/11 01:56:48;;;;;;;41.88;16.77;;;-7.90;99.90;;;;;;4939117;29;20085;-64
2024/01/11 01:59:15;;;;;;;35.63;16.08;;;-8.00;99.90;;;;;;4956117;29;20074;-63
2024/01/11 02:01:41;;;;;;;44.55;18.35;;;-8.00;99.90;;;;;;4939431;29;20031;-63
2024/01/11 02:04:07;;;;;;;46.88;18.70;;;-7.90;99.90;;;;;;4956260;28;20150;-64
2024/01/11 02:06:34;;;;;;;42.38;17.23;;;-8.00;99.90;;;;;;4956287;29;20535;-63
2024/01/11 02:09:04;;;;;;;40.53;16.90;;;-8.00;99.90;;;;;;4956241;29;20019;-63
2024/01/11 02:11:30;;;;;;;45.30;17.98;;;-8.00;99.90;;;;;;4956449;29;20443;-64
2024/01/11 02:13:57;;;;;;;39.22;17.67;;;-5.80;99.90;;;;;;4939276;29;20031;-64
2024/01/11 02:16:23;;;;;;;40.33;16.45;;;-8.00;99.90;;;;;;4956489;29;20019;-63
2024/01/11 02:18:49;;;;;;;46.28;16.27;;;-8.00;99.90;;;;;;4956677;28;20026;-63
2024/01/11 02:21:17;;;;;;;40.72;16.23;;;-6.30;99.90;;;;;;4956591;29;20019;-63
2024/01/11 02:24:05;;;;;;;40.53;16.10;;;-8.00;99.90;;;;;;4956701;29;20033;-64
2024/01/11 02:26:31;;;;;;;41.65;16.58;;;-8.00;99.90;;;;;;4956550;29;20031;-66
2024/01/11 02:28:57;;;;;;;40.15;16.25;;;-5.60;99.90;;;;;;4956260;29;20478;-64
2024/01/11 02:31:23;;;;;;;41.60;16.90;;;-6.30;99.90;;;;;;4939207;29;20030;-63
2024/01/11 02:33:49;;;;;;;45.28;18.17;;;-8.10;99.90;;;;;;4956337;29;20058;-63
2024/01/11 02:36:15;;;;;;;45.22;17.75;;;-5.50;99.90;;;;;;4956132;28;20027;-63
2024/01/11 02:38:42;;;;;;;41.53;17.13;;;-8.10;99.90;;;;;;4956358;28;20454;-63
2024/01/11 02:41:08;;;;;;;43.50;18.13;;;-8.20;99.90;;;;;;4957206;29;20019;-64
2024/01/11 02:43:37;;;;;;;43.58;16.92;;;-8.20;99.90;;;;;;4938957;29;20489;-64
2024/01/11 02:46:03;;;;;;;39.47;15.60;;;-8.20;99.90;;;;;;4956022;29;20024;-64
2024/01/11 02:48:29;;;;;;;39.97;16.25;;;-8.30;99.90;;;;;;4955904;29;20027;-63
2024/01/11 02:50:59;;;;;;;44.60;16.90;;;-7.10;99.90;;;;;;4938962;29;20039;-63
2024/01/11 02:53:24;;;;;;;37.17;16.00;;;-8.30;99.90;;;;;;4955360;28;20027;-64
2024/01/11 02:55:50;;;;;;;39.45;15.13;;;-6.20;99.90;;;;;;4938536;29;20023;-63
2024/01/11 02:58:16;;;;;;;44.08;16.23;;;-8.30;99.90;;;;;;4938456;29;20023;-63
2024/01/11 03:00:42;;;;;;;37.72;15.85;;;-8.30;99.90;;;;;;4938574;29;20023;-63
2024/01/11 03:03:07;;;;;;;38.95;15.50;;;-8.50;99.90;;;;;;4955464;29;20056;-63
2024/01/11 03:05:33;;;;;;;40.00;16.30;;;-5.70;99.90;;;;;;4954514;28;20027;-63
2024/01/11 03:07:59;;;;;;;34.33;15.82;;;-8.20;99.90;;;;;;4939640;29;20082;-63
2024/01/11 03:10:24;;;;;;;33.83;14.55;;;-6.90;99.90;;;;;;4941000;29;20023;-63
2024/01/11 03:12:50;;;;;;;37.30;15.10;;;-8.40;99.90;;;;;;4940800;29;20123;-63
2024/01/11 03:15:16;;;;;;;40.83;14.70;;;-8.50;99.90;;;;;;4958316;29;20027;-63
2024/01/11 03:17:41;;;;;;;39.30;15.88;;;-8.50;99.90;;;;;;4958309;28;20452;-63
2024/01/11 03:20:08;;;;;;;38.85;15.38;;;-8.50;99.90;;;;;;4958195;29;20031;-63
2024/01/11 03:22:34;;;;;;;37.90;13.77;;;-8.50;99.90;;;;;;4940794;29;20027;-63
2024/01/11 03:24:59;;;;;;;37.38;14.15;;;-8.50;99.90;;;;;;4940741;29;20023;-63
2024/01/11 03:27:25;;;;;;;36.75;14.40;;;-8.40;99.90;;;;;;4958190;29;20031;-63
2024/01/11 03:29:51;;;;;;;38.45;14.88;;;-8.60;99.90;;;;;;4957868;28;20023;-63
2024/01/11 03:32:17;;;;;;;38.72;15.68;;;-8.60;99.90;;;;;;4957425;29;20051;-63
2024/01/11 03:34:42;;;;;;;39.13;15.20;;;-8.60;99.90;;;;;;4940616;29;20027;-63
2024/01/11 03:37:08;;;;;;;43.35;15.55;;;-8.60;99.90;;;;;;4940604;29;20023;-63
2024/01/11 03:39:34;;;;;;;37.35;15.25;;;-8.60;99.90;;;;;;4957659;29;20398;-63
2024/01/11 03:42:00;;;;;;;41.75;15.35;;;-8.60;99.90;;;;;;4957665;28;20358;-63
2024/01/11 03:44:26;;;;;;;33.38;13.95;;;-8.60;99.90;;;;;;4940463;29;20023;-63
2024/01/11 03:46:51;;;;;;;40.28;14.82;;;-8.70;99.90;;;;;;4940364;29;20077;-63
2024/01/11 03:49:17;;;;;;;38.20;15.18;;;-8.70;99.90;;;;;;4957547;29;20015;-63
2024/01/11 03:51:44;;;;;;;38.15;16.00;;;-6.20;99.90;;;;;;4957467;29;20451;-63
2024/01/11 03:54:09;;;;;;;38.80;14.50;;;-8.70;99.90;;;;;;4957485;29;20024;-63
2024/01/11 03:56:39;;;;;;;39.00;14.77;;;-8.70;99.90;;;;;;4957487;29;20078;-63
2024/01/11 03:59:05;;;;;;;34.70;13.75;;;-8.70;99.90;;;;;;4940286;29;20026;-63
2024/01/11 04:01:32;;;;;;;40.25;15.95;;;-8.80;99.90;;;;;;4957604;29;20027;-63
2024/01/11 04:03:58;;;;;;;36.35;13.60;;;-8.80;99.90;;;;;;4919947;28;1125489;-64
2024/01/11 04:06:24;;;;;;;42.50;14.65;;;-8.80;99.90;;;;;;4942263;29;20042;-64
2024/01/11 04:08:50;;;;;;;38.83;14.05;;;-8.80;99.90;;;;;;4959663;29;20027;-64
2024/01/11 04:11:17;;;;;;;35.15;14.98;;;-8.80;99.90;;;;;;4959550;29;20363;-67
2024/01/11 04:13:43;;;;;;;36.10;15.18;;;-7.20;99.90;;;;;;4942055;29;20030;-69
2024/01/11 04:16:08;;;;;;;36.53;15.95;;;-8.90;99.90;;;;;;4941051;29;20413;-63
2024/01/11 04:18:34;;;;;;;40.58;15.52;;;-7.10;99.90;;;;;;4940895;29;20477;-64
2024/01/11 04:21:00;;;;;;;40.25;15.48;;;-8.90;99.90;;;;;;4940953;29;20034;-63
2024/01/11 04:23:25;;;;;;;33.42;15.05;;;-8.90;99.90;;;;;;4958425;29;20034;-63
2024/01/11 04:25:54;;;;;;;38.47;14.85;;;-8.90;99.90;;;;;;4958495;29;20034;-63
2024/01/11 04:28:19;;;;;;;;;;;-6.80;99.90;;;;;;4958722;29;20027;-64
2024/01/11 04:30:45;;;;;;;37.83;14.80;;;-6.70;99.90;;;;;;4941321;29;19969;-64
2024/01/11 04:33:10;;;;;;;43.08;16.85;;;-9.00;99.90;;;;;;4957676;29;20459;-63
2024/01/11 04:35:36;;;;;;;43.30;15.30;;;-9.00;99.90;;;;;;4940804;29;20027;-63
2024/01/11 04:38:03;;;;;;;46.33;15.63;;;-9.00;99.90;;;;;;4957843;29;20027;-63
2024/01/11 04:40:28;;;;;;;36.40;13.75;;;-9.00;99.90;;;;;;4940692;29;20055;-63
2024/01/11 04:42:54;;;;;;;37.53;15.55;;;-6.70;99.90;;;;;;4957814;29;20037;-63
2024/01/11 04:45:20;;;;;;;39.90;16.10;;;-9.00;99.90;;;;;;4957760;29;20019;-63
2024/01/11 04:47:45;;;;;;;35.60;14.68;;;-8.90;99.90;;;;;;4940456;29;20026;-63
2024/01/11 04:50:11;;;;;;;38.40;14.70;;;-8.90;99.90;;;;;;4940519;29;20034;-63
2024/01/11 04:52:37;;;;;;;39.03;14.90;;;-8.90;99.90;;;;;;4940344;29;20455;-63
2024/01/11 04:55:02;;;;;;;40.88;15.65;;;-8.80;99.90;;;;;;4940498;29;20027;-63
2024/01/11 04:57:28;;;;;;;39.58;16.98;;;-8.80;99.90;;;;;;4957491;29;20352;-63
2024/01/11 04:59:54;;;;;;;42.05;16.20;;;-8.80;99.90;;;;;;4940838;29;20026;-63
2024/01/11 05:02:23;;;;;;;41.97;15.52;;;-8.80;99.90;;;;;;4958332;29;20038;-64
2024/01/11 05:04:48;;;;;;;41.55;16.88;;;-8.80;99.90;;;;;;4958087;28;20473;-63
2024/01/11 05:07:14;;;;;;;41.88;15.88;;;-8.70;99.90;;;;;;4957480;28;20027;-63
2024/01/11 05:09:39;;;;;;;38.22;15.55;;;-8.70;99.90;;;;;;4957001;29;20402;-63
2024/01/11 05:12:05;;;;;;;40.45;16.30;;;-8.70;99.90;;;;;;4957516;29;20514;-63
2024/01/11 05:14:31;;;;;;;40.90;16.02;;;-8.80;99.90;;;;;;4957250;28;20091;-63
2024/01/11 05:16:57;;;;;;;42.67;17.20;;;-8.80;99.90;;;;;;4957840;28;20024;-65
2024/01/11 05:19:22;;;;;;;39.05;15.07;;;-8.80;99.90;;;;;;4959236;29;20023;-63
2024/01/11 05:21:48;;;;;;;42.88;16.90;;;-8.70;99.90;;;;;;4941431;29;20035;-64
2024/01/11 05:24:14;;;;;;;37.45;16.13;;;-8.70;99.90;;;;;;4939655;29;20061;-63
2024/01/11 05:26:39;;;;;;;35.83;15.55;;;-8.80;99.90;;;;;;4957252;29;20059;-63
2024/01/11 05:29:05;;;;;;;47.42;15.93;;;-8.80;99.90;;;;;;4939682;28;20019;-64
2024/01/11 05:31:31;;;;;;;36.88;15.88;;;-8.90;99.90;;;;;;4938945;28;20071;-63
2024/01/11 05:33:56;;;;;;;46.13;17.90;;;-8.90;99.90;;;;;;4956429;29;20098;-63
2024/01/11 05:36:23;;;;;;;44.78;17.55;;;-8.80;99.90;;;;;;4956697;29;20026;-63
2024/01/11 05:38:48;;;;;;;48.03;18.75;;;-8.80;99.90;;;;;;4939291;29;20031;-63
2024/01/11 05:41:14;;;;;;;41.78;18.17;;;-7.30;99.90;;;;;;4956609;29;20026;-64
2024/01/11 05:43:40;;;;;;;48.67;18.73;;;-8.80;99.90;;;;;;4939744;29;20039;-63
2024/01/11 05:46:07;;;;;;;43.90;17.27;;;-8.80;99.90;;;;;;4956638;29;20027;-63
2024/01/11 05:48:32;;;;;;;38.20;16.73;;;-8.80;99.90;;;;;;4956612;29;20082;-63
2024/01/11 05:50:58;;;;;;;45.65;18.08;;;-8.90;99.90;;;;;;4956514;29;20387;-64
2024/01/11 05:53:24;;;;;;;46.90;19.63;;;-8.90;99.90;;;;;;4956387;28;20027;-64
2024/01/11 05:55:50;;;;;;;42.45;18.05;;;-8.80;99.90;;;;;;4956111;29;20027;-64
2024/01/11 05:58:16;;;;;;;52.78;20.77;;;-8.80;99.90;;;;;;4939173;29;20035;-64
2024/01/11 06:00:41;;;;;;;54.55;20.92;;;-8.80;99.90;;;;;;4956017;29;20035;-64
2024/01/11 06:03:07;;;;;;;52.42;21.92;;;-8.90;99.90;;;;;;4956372;28;20047;-63
2024/01/11 06:05:33;;;;;;;61.90;21.52;;;-8.90;99.90;;;;;;4939088;29;20065;-63
2024/01/11 06:07:59;;;;;;;45.95;20.98;;;-8.90;99.90;;;;;;4956343;28;20095;-63
2024/01/11 06:10:24;;;;;;;49.70;20.02;;;-9.00;99.90;;;;;;4939217;29;20379;-64
2024/01/11 06:12:50;;;;;;;52.60;20.40;;;-8.90;99.90;;;;;;4955812;29;20039;-64
2024/01/11 06:15:16;;;;;;;54.63;19.63;;;-9.00;99.90;;;;;;4955877;29;20024;-63
2024/01/11 06:17:41;;;;;;;50.72;18.30;;;-9.00;99.90;;;;;;4955764;28;20463;-63
2024/01/11 06:20:09;;;;;;;56.72;19.65;;;-9.00;99.90;;;;;;4955794;29;20023;-65
2024/01/11 06:22:35;;;;;;;50.40;19.05;;;-8.90;99.90;;;;;;4956508;29;20031;-63
2024/01/11 06:25:01;;;;;;;53.28;19.10;;;-7.20;99.90;;;;;;4938485;29;20035;-63
2024/01/11 06:27:26;;;;;;;46.00;19.73;;;-9.00;99.90;;;;;;4955911;29;20034;-63
2024/01/11 06:29:52;;;;;;;59.97;21.00;;;-9.00;99.90;;;;;;4938722;29;20046;-63
2024/01/11 06:32:18;;;;;;;55.40;22.10;;;-9.00;99.90;;;;;;4938622;29;20046;-64
2024/01/11 06:34:45;;;;;;;58.25;22.27;;;-7.90;99.90;;;;;;4938643;29;20038;-63
2024/01/11 06:37:12;;;;;;;55.40;21.80;;;-9.00;99.90;;;;;;4956091;29;20486;-63
2024/01/11 06:39:37;;;;;;;56.20;21.63;;;-8.60;99.90;;;;;;4938466;29;20035;-63
2024/01/11 06:42:03;;;;;;;58.67;22.98;;;-9.00;99.90;;;;;;4955041;29;20031;-63
2024/01/11 06:44:30;;;;;;;57.75;21.95;;;-9.00;99.90;;;;;;4938554;29;20031;-64
2024/01/11 06:46:56;;;;;;;47.63;20.52;;;-9.00;99.90;;;;;;4955984;29;20037;-63
2024/01/11 06:49:22;;;;;;;60.58;21.95;;;-9.00;99.90;;;;;;4938683;29;20063;-63
2024/01/11 06:51:47;;;;;;;60.00;23.90;;;-6.50;99.90;;;;;;4955800;28;20036;-63
2024/01/11 06:54:13;;;;;;;58.03;23.60;;;-8.90;99.90;;;;;;4938680;29;20391;-64
2024/01/11 06:56:39;;;;;;;66.30;23.27;;;-8.90;99.90;;;;;;4939018;29;20034;-63
2024/01/11 06:59:05;;;;;;;62.60;23.70;;;-8.90;99.90;;;;;;4955782;29;20459;-63
2024/01/11 07:01:30;;;;;;;55.03;22.30;;;-8.90;99.90;;;;;;4938319;29;20525;-63
2024/01/11 07:03:56;;;;;;;67.65;25.80;;;-8.90;99.90;;;;;;4955458;28;20122;-63
2024/01/11 07:06:22;;;;;;;63.70;22.70;;;-8.80;99.90;;;;;;4938354;29;20076;-63
2024/01/11 07:08:48;;;;;;;63.47;24.70;;;-8.90;99.90;;;;;;4955600;29;20063;-63
2024/01/11 07:11:13;;;;;;;67.50;26.17;;;-8.90;99.90;;;;;;4938303;29;20106;-63
2024/01/11 07:13:39;;;;;;;67.72;24.45;;;-8.80;99.90;;;;;;4938558;29;20252;-63
2024/01/11 07:16:05;;;;;;;61.30;23.90;;;-8.80;99.90;;;;;;4938328;29;20530;-63
2024/01/11 07:18:31;;;;;;;61.05;23.35;;;-8.80;99.90;;;;;;4955742;28;20038;-64
2024/01/11 07:20:58;;;;;;;54.35;22.17;;;-7.10;99.90;;;;;;4939870;29;20023;-63
2024/01/11 07:23:24;;;;;;;51.30;21.10;;;-6.60;99.90;;;;;;4938472;29;20091;-63
2024/01/11 07:25:50;;;;;;;52.67;21.98;;;-6.40;99.90;;;;;;4938208;29;20420;-64
2024/01/11 07:28:17;;;;;;;54.83;22.35;;;-8.70;99.90;;;;;;4938229;29;20039;-64
2024/01/11 07:30:43;;;;;;;58.00;22.38;;;-8.60;99.90;;;;;;4938058;29;20038;-63
2024/01/11 07:33:09;;;;;;;59.58;23.30;;;-6.10;99.90;;;;;;4955176;29;20031;-63
2024/01/11 07:35:35;;;;;;;65.65;25.38;;;-8.50;99.90;;;;;;4955383;29;20035;-63
2024/01/11 07:38:00;;;;;;;73.95;29.25;;;-8.50;99.90;;;;;;4938045;29;20455;-63
2024/01/11 07:40:26;;;;;;;78.55;29.40;;;-8.40;99.90;;;;;;4955210;28;20027;-63
2024/01/11 07:42:53;;;;;;;76.05;28.33;;;-8.40;99.90;;;;;;4955274;29;20042;-63
2024/01/11 07:45:19;;;;;;;68.07;26.65;;;-8.30;99.90;;;;;;4937990;29;20032;-63
2024/01/11 07:47:44;;;;;;;68.53;26.35;;;-8.30;99.90;;;;;;4955101;28;20031;-63
2024/01/11 07:50:10;;;;;;;76.63;28.75;;;-8.20;99.90;;;;;;4938016;29;20031;-64
2024/01/11 07:52:36;;;;;;;80.47;29.63;;;-8.00;99.90;;;;;;4955233;28;20077;-63
2024/01/11 07:55:06;;;;;;;74.95;30.55;;;-6.70;99.90;;;;;;4941276;29;20478;-63
2024/01/11 07:57:35;;;;;;;69.38;28.48;;;-7.80;99.90;;;;;;4958740;29;20032;-64
2024/01/11 08:00:03;;;;;;;73.18;27.55;;;-7.70;99.90;;;;;;4958588;29;20075;-64
2024/01/11 08:02:29;;;;;;;69.78;27.27;;;-7.60;99.90;;;;;;4941118;29;20031;-64
2024/01/11 08:04:54;;;;;;;74.78;27.55;;;-5.60;99.90;;;;;;4919295;29;20051;-63
2024/01/11 08:07:20;;;;;;;67.43;27.05;;;-7.40;99.90;;;;;;4920224;29;20076;-64
2024/01/11 08:09:47;;;;;;;65.80;27.33;;;-5.20;99.90;;;;;;4920196;29;20024;-63
2024/01/11 08:12:16;;;;;;;80.40;28.13;;;-7.30;99.90;;;;;;4918812;29;20039;-63
2024/01/11 08:14:41;;;;;;;72.15;27.30;;;-7.10;99.90;;;;;;4918844;29;20559;-63
2024/01/11 08:17:08;;;;;;;72.68;26.02;;;-6.70;99.90;;;;;;4918458;29;20032;-63
2024/01/11 08:19:34;;;;;;;66.05;26.92;;;-6.40;99.90;;;;;;4918945;29;20491;-64
2024/01/11 08:22:00;;;;;;;58.22;26.67;;;-6.00;99.90;;;;;;4919698;29;20472;-64
2024/01/11 08:24:26;;;;;;;55.70;25.08;;;-5.60;99.90;;;;;;4919877;29;20032;-64
2024/01/11 08:26:52;;;;;;;57.33;26.08;;;-5.40;99.90;;;;;;4918633;29;20028;-64
2024/01/11 08:29:19;;;;;;;59.92;25.40;;;-5.10;99.90;;;;;;4919986;29;20028;-64
2024/01/11 08:31:45;;;;;;;52.63;22.33;;;-2.90;99.90;;;;;;4918562;29;20036;-64
2024/01/11 08:34:11;;;;;;;54.70;23.98;;;-4.50;99.90;;;;;;4919724;29;20032;-64
2024/01/11 08:36:38;;;;;;;53.38;23.50;;;-4.20;99.90;;;;;;4919193;29;20440;-64
2024/01/11 08:39:08;;;;;;;54.30;25.10;;;-3.90;99.90;;;;;;4919733;29;20088;-64
2024/01/11 08:41:40;;;;;;;56.33;24.00;;;-3.60;99.90;;;;;;4919797;29;20501;-64
2024/01/11 08:44:05;;;;;;;52.15;23.23;;;-3.40;99.90;;;;;;4919637;29;20031;-64
2024/01/11 08:46:33;;;;;;;50.28;23.45;;;-3.10;99.90;;;;;;4918428;29;20032;-64
2024/01/11 08:48:59;;;;;;;56.78;23.50;;;-2.70;99.90;;;;;;4918344;29;20403;-64
2024/01/11 08:51:25;;;;;;;51.95;22.42;;;-2.60;99.90;;;;;;4918218;29;20379;-64
2024/01/11 08:53:52;;;;;;;57.95;24.13;;;-2.30;99.90;;;;;;4919444;29;20028;-64
2024/01/11 08:56:18;;;;;;;53.00;24.13;;;-2.20;99.90;;;;;;4919466;29;20039;-64
2024/01/11 08:58:44;;;;;;;45.38;22.35;;;-2.00;99.90;;;;;;4919286;29;20032;-64
2024/01/11 09:01:10;;;;;;;48.40;23.00;;;-1.80;99.90;;;;;;4919515;29;20033;-64
2024/01/11 09:03:35;;;;;;;45.08;23.38;;;-1.70;99.90;;;;;;4934775;29;20054;-64
2024/01/11 09:06:04;;;;;;;44.20;21.65;;;-1.60;99.90;;;;;;4956363;28;20059;-65
2024/01/11 09:08:29;;;;;;;;;;;-1.60;99.90;;;;;;4957667;28;20051;-64
2024/01/11 09:10:58;;;;;;;46.92;22.02;;;-1.20;99.90;;;;;;4939964;29;19906;-64
2024/01/11 09:13:23;;;;;;;44.47;22.05;;;-0.60;99.90;;;;;;4939777;29;20094;-64
2024/01/11 09:15:49;;;;;;;40.13;20.20;;;0.00;99.90;;;;;;4939946;29;20035;-65
2024/01/11 09:18:15;;;;;;;36.50;20.38;;;0.60;99.90;;;;;;4957040;29;20101;-64
2024/01/11 09:20:41;;;;;;;39.28;22.15;;;0.60;99.90;;;;;;4956679;29;20424;-65
2024/01/11 09:23:08;;;;;;;44.72;21.10;;;0.90;99.30;;;;;;4956902;29;20058;-64
2024/01/11 09:25:33;;;;;;;40.25;21.00;;;0.70;97.80;;;;;;4939786;29;20027;-65
2024/01/11 09:27:59;;;;;;;38.60;20.45;;;0.40;98.20;;;;;;4956848;28;20360;-64
2024/01/11 09:30:25;;;;;;;39.15;21.08;;;0.40;97.80;;;;;;4939594;29;20031;-64
2024/01/11 09:32:51;;;;;;;38.85;20.60;;;0.60;98.10;;;;;;4956697;29;20038;-64
2024/01/11 09:35:16;;;;;;;40.53;21.10;;;0.50;96.90;;;;;;4956468;28;20035;-64
2024/01/11 09:37:46;;;;;;;41.13;21.17;;;0.50;96.80;;;;;;4939565;29;20039;-65
2024/01/11 09:40:12;;;;;;;40.08;19.77;;;0.40;96.90;;;;;;4939411;29;20123;-64
2024/01/11 09:42:39;;;;;;;40.63;21.17;;;0.40;96.70;;;;;;4956573;29;20027;-65
2024/01/11 09:45:10;;;;;;;39.85;21.05;;;0.70;97.10;;;;;;4956667;28;20028;-64
2024/01/11 09:47:36;;;;;;;38.50;20.63;;;0.50;96.30;;;;;;4956528;29;20055;-64
2024/01/11 09:50:06;;;;;;;40.53;21.83;;;0.80;96.50;;;;;;4939227;29;20042;-64
2024/01/11 09:52:32;;;;;;;39.42;20.50;;;1.50;96.20;;;;;;4956908;29;20463;-65
2024/01/11 09:54:59;;;;;;;41.30;21.40;;;2.00;94.40;;;;;;4956743;28;20043;-65
2024/01/11 09:57:30;;;;;;;41.65;20.90;;;1.40;93.40;;;;;;4956470;29;20023;-65
2024/01/11 09:59:57;;;;;;;40.63;22.65;;;1.70;93.20;;;;;;4956701;29;20447;-65
2024/01/11 10:02:24;;;;;;;40.92;21.50;;;1.40;93.20;;;;;;4939025;29;20474;-65
2024/01/11 10:04:52;;;;;;;41.03;20.88;;;1.00;93.70;;;;;;4956402;29;20050;-65
2024/01/11 10:07:21;;;;;;;44.83;22.23;;;0.40;94.50;;;;;;4956520;29;20046;-65
2024/01/11 10:09:47;;;;;;;41.28;20.08;;;0.60;95.20;;;;;;4956442;29;20031;-65
2024/01/11 10:12:13;;;;;;;41.40;20.90;;;0.30;95.80;;;;;;4956951;29;20023;-65
2024/01/11 10:14:39;;;;;;;38.58;20.52;;;0.40;96.00;;;;;;4957028;29;20031;-64
2024/01/11 10:17:06;;;;;;;42.28;20.13;;;0.20;96.00;;;;;;4938911;29;20375;-65
2024/01/11 10:19:32;;;;;;;43.17;20.83;;;0.10;96.90;;;;;;4938938;29;20182;-64
2024/01/11 10:21:58;;;;;;;40.88;20.48;;;0.30;97.30;;;;;;4939178;29;20519;-64
2024/01/11 10:24:28;;;;;;;41.83;20.30;;;0.40;96.00;;;;;;4938766;29;20110;-65
2024/01/11 10:26:58;;;;;;;39.55;20.13;;;0.30;95.50;;;;;;4956284;29;20038;-65
2024/01/11 10:29:30;;;;;;;39.83;19.60;;;0.10;96.10;;;;;;4938678;29;20035;-65
2024/01/11 10:31:56;;;;;;;41.85;20.67;;;0.40;96.80;;;;;;4955698;29;20487;-65
2024/01/11 10:34:23;;;;;;;37.50;19.25;;;0.80;95.30;;;;;;4955899;29;20058;-65
2024/01/11 10:36:50;;;;;;;38.78;19.90;;;0.90;94.80;;;;;;4955577;29;20078;-65
2024/01/11 10:39:17;;;;;;;36.63;19.92;;;0.90;95.40;;;;;;4955840;28;20050;-65
2024/01/11 10:41:57;;;;;;;38.83;19.83;;;0.90;95.20;;;;;;4938724;29;20532;-65
2024/01/11 10:44:22;;;;;;;35.30;18.73;;;0.90;95.30;;;;;;4955746;29;20027;-65
2024/01/11 10:46:56;;;;;;;33.50;18.50;;;1.10;95.10;;;;;;4956039;29;20058;-65
2024/01/11 10:49:25;;;;;;;39.00;19.75;;;1.20;94.80;;;;;;4939062;29;20082;-64
2024/01/11 10:52:01;;;;;;;41.28;21.48;;;1.50;93.90;;;;;;4955727;28;20078;-64
2024/01/11 10:54:31;;;;;;;37.67;20.35;;;1.20;94.30;;;;;;4955733;29;20042;-65
2024/01/11 10:57:02;;;;;;;39.72;20.23;;;1.00;94.80;;;;;;4956117;29;20106;-65
2024/01/11 10:59:30;;;;;;;39.80;20.25;;;0.90;94.60;;;;;;4956014;29;20135;-65
2024/01/11 11:01:58;;;;;;;41.35;21.35;;;0.90;95.20;;;;;;4938485;29;20032;-65
2024/01/11 11:04:25;;;;;;;36.30;19.67;;;1.40;95.00;;;;;;4955942;29;20134;-65
2024/01/11 11:06:58;;;;;;;36.38;19.35;;;2.00;94.40;;;;;;4955523;29;20031;-64
2024/01/11 11:09:28;;;;;;;43.67;21.63;;;2.80;93.10;;;;;;4938347;29;20035;-65
2024/01/11 11:11:58;;;;;;;39.55;19.98;;;3.30;90.80;;;;;;4955114;29;20038;-65
2024/01/11 11:14:25;;;;;;;33.95;19.95;;;3.60;90.20;;;;;;4955720;29;20023;-65
2024/01/11 11:16:52;;;;;;;38.03;21.52;;;3.90;89.00;;;;;;4938306;29;20054;-65
2024/01/11 11:19:21;;;;;;;41.42;21.52;;;4.30;85.90;;;;;;4955582;29;20117;-65
2024/01/11 11:21:47;;;;;;;;;;;4.50;84.40;;;;;;4955822;29;20023;-65
2024/01/11 11:24:13;;;;;;;35.28;20.33;;;4.70;83.10;;;;;;4938189;29;19929;-65
2024/01/11 11:26:39;;;;;;;35.90;20.52;;;5.00;82.00;;;;;;4955401;29;20487;-65
2024/01/11 11:29:05;;;;;;;34.72;19.85;;;5.00;80.80;;;;;;4940438;29;20064;-65
2024/01/11 11:31:53;;;;;;;36.60;20.80;;;5.40;79.90;;;;;;4959009;28;20023;-65
2024/01/11 11:34:20;;;;;;;34.13;19.63;;;5.00;77.80;;;;;;4959026;29;20152;-66
2024/01/11 11:36:54;;;;;;;31.23;18.75;;;5.10;77.90;;;;;;4941653;29;20032;-65
2024/01/11 11:39:20;;;;;;;36.60;20.88;;;4.90;77.90;;;;;;4958913;29;20023;-65
2024/01/11 11:41:47;;;;;;;37.55;19.48;;;4.60;77.20;;;;;;4941777;29;20034;-65
2024/01/11 11:44:15;;;;;;;31.92;18.70;;;4.30;77.80;;;;;;4941556;29;20038;-66
2024/01/11 11:46:41;;;;;;;32.03;18.67;;;4.70;77.40;;;;;;4958502;29;20462;-65
2024/01/11 11:49:07;;;;;;;32.67;18.15;;;5.30;76.20;;;;;;4941488;29;20038;-66
2024/01/11 11:51:34;;;;;;;32.53;18.52;;;5.00;74.70;;;;;;4958758;29;20034;-65
2024/01/11 11:54:02;;;;;;;29.95;17.83;;;4.70;75.10;;;;;;4958527;29;20455;-65
2024/01/11 11:56:28;;;;;;;32.25;18.52;;;4.80;75.90;;;;;;4941434;29;20031;-65
2024/01/11 11:58:54;;;;;;;32.95;19.60;;;5.10;75.40;;;;;;4941441;29;20403;-65
2024/01/11 12:01:20;;;;;;;32.40;19.00;;;5.80;74.10;;;;;;4941294;29;20066;-65
2024/01/11 12:03:49;;;;;;;32.35;18.98;;;5.70;73.20;;;;;;4958360;29;20105;-65
2024/01/11 12:06:16;;;;;;;;;;;5.60;72.90;;;;;;4941619;29;20078;-65
2024/01/11 12:08:43;;;;;;;33.95;18.77;;;5.60;73.40;;;;;;4958412;28;19981;-65
2024/01/11 12:11:12;;;;;;;32.03;18.80;;;5.70;72.50;;;;;;4941105;29;20036;-65
2024/01/11 12:13:38;;;;;;;34.20;19.23;;;5.60;73.00;;;;;;4958572;29;20039;-65
2024/01/11 12:16:03;;;;;;;34.10;19.20;;;5.70;73.10;;;;;;4941153;29;20087;-65
2024/01/11 12:18:29;;;;;;;32.55;19.45;;;5.90;72.50;;;;;;4958395;29;20031;-66
2024/01/11 12:20:55;;;;;;;30.83;17.98;;;5.40;72.40;;;;;;4941835;29;20031;-66
2024/01/11 12:23:20;;;;;;;30.70;18.30;;;5.80;72.90;;;;;;4958706;28;20175;-66
2024/01/11 12:25:47;;;;;;;35.78;18.77;;;5.70;72.20;;;;;;4958928;29;20035;-66
2024/01/11 12:28:12;;;;;;;31.60;18.23;;;6.00;71.80;;;;;;4959034;29;20024;-66